sensor_id;sensor_type;location;lat;lon;timestamp;temperature;humidity
37276;DHT22;23166;51.150;21.620;2022-08-19T00:01:46;20.40;88.20
37276;DHT22;23166;51.150;21.620;2022-08-19T00:04:13;20.40;90.30
37276;DHT22;23166;51.150;21.620;2022-08-19T00:06:41;20.40;89.70
37276;DHT22;23166;51.150;21.620;2022-08-19T00:09:08;20.40;87.70
37276;DHT22;23166;51.150;21.620;2022-08-19T00:11:35;20.40;90.30
37276;DHT22;23166;51.150;21.620;2022-08-19T00:14:04;20.40;89.80
37276;DHT22;23166;51.150;21.620;2022-08-19T00:16:30;20.40;89.70
37276;DHT22;23166;51.150;21.620;2022-08-19T00:18:56;20.40;89.10
37276;DHT22;23166;51.150;21.620;2022-08-19T00:21:23;20.30;90.90
37276;DHT22;23166;51.150;21.620;2022-08-19T00:23:49;20.30;90.30
37276;DHT22;23166;51.150;21.620;2022-08-19T00:26:15;20.30;89.90
37276;DHT22;23166;51.150;21.620;2022-08-19T00:28:42;20.20;90.00
37276;DHT22;23166;51.150;21.620;2022-08-19T00:31:08;20.20;91.90
37276;DHT22;23166;51.150;21.620;2022-08-19T00:33:34;20.10;92.70
37276;DHT22;23166;51.150;21.620;2022-08-19T00:36:01;20.10;92.10
37276;DHT22;23166;51.150;21.620;2022-08-19T00:38:30;20.10;91.90
37276;DHT22;23166;51.150;21.620;2022-08-19T00:40:56;20.00;92.90
37276;DHT22;23166;51.150;21.620;2022-08-19T00:43:23;20.00;92.00
37276;DHT22;23166;51.150;21.620;2022-08-19T00:45:49;20.00;92.90
37276;DHT22;23166;51.150;21.620;2022-08-19T00:48:17;19.90;94.10
37276;DHT22;23166;51.150;21.620;2022-08-19T00:50:44;19.90;93.60
37276;DHT22;23166;51.150;21.620;2022-08-19T00:53:11;19.80;93.90
37276;DHT22;23166;51.150;21.620;2022-08-19T00:55:38;19.80;94.40
37276;DHT22;23166;51.150;21.620;2022-08-19T00:58:09;19.70;94.90
37276;DHT22;23166;51.150;21.620;2022-08-19T01:00:35;19.70;95.10
37276;DHT22;23166;51.150;21.620;2022-08-19T01:03:04;19.60;96.20
37276;DHT22;23166;51.150;21.620;2022-08-19T01:05:30;19.60;96.10
37276;DHT22;23166;51.150;21.620;2022-08-19T01:07:58;19.60;96.10
37276;DHT22;23166;51.150;21.620;2022-08-19T01:10:26;19.50;95.80
37276;DHT22;23166;51.150;21.620;2022-08-19T01:12:53;19.50;96.00
37276;DHT22;23166;51.150;21.620;2022-08-19T01:15:21;19.40;96.70
37276;DHT22;23166;51.150;21.620;2022-08-19T01:17:48;19.40;96.90
37276;DHT22;23166;51.150;21.620;2022-08-19T01:20:17;19.40;97.10
37276;DHT22;23166;51.150;21.620;2022-08-19T01:22:44;19.40;97.20
37276;DHT22;23166;51.150;21.620;2022-08-19T01:25:11;19.30;98.10
37276;DHT22;23166;51.150;21.620;2022-08-19T01:27:38;19.30;97.80
37276;DHT22;23166;51.150;21.620;2022-08-19T01:30:05;19.30;97.20
37276;DHT22;23166;51.150;21.620;2022-08-19T01:32:32;19.30;96.60
37276;DHT22;23166;51.150;21.620;2022-08-19T01:34:59;19.20;96.10
37276;DHT22;23166;51.150;21.620;2022-08-19T01:37:27;19.20;95.80
37276;DHT22;23166;51.150;21.620;2022-08-19T01:39:53;19.20;95.70
37276;DHT22;23166;51.150;21.620;2022-08-19T01:42:19;19.10;95.60
37276;DHT22;23166;51.150;21.620;2022-08-19T01:44:45;19.10;94.90
37276;DHT22;23166;51.150;21.620;2022-08-19T01:47:11;19.10;94.90
37276;DHT22;23166;51.150;21.620;2022-08-19T01:49:37;19.10;95.20
37276;DHT22;23166;51.150;21.620;2022-08-19T01:52:04;19.00;95.30
37276;DHT22;23166;51.150;21.620;2022-08-19T01:54:30;19.00;96.40
37276;DHT22;23166;51.150;21.620;2022-08-19T01:57:02;18.90;96.70
37276;DHT22;23166;51.150;21.620;2022-08-19T01:59:25;19.00;96.80
37276;DHT22;23166;51.150;21.620;2022-08-19T02:01:51;19.00;97.30
37276;DHT22;23166;51.150;21.620;2022-08-19T02:04:17;19.00;98.10
37276;DHT22;23166;51.150;21.620;2022-08-19T02:06:43;19.00;98.30
37276;DHT22;23166;51.150;21.620;2022-08-19T02:09:09;19.00;98.20
37276;DHT22;23166;51.150;21.620;2022-08-19T02:11:36;19.00;98.50
37276;DHT22;23166;51.150;21.620;2022-08-19T02:14:05;18.90;99.80
37276;DHT22;23166;51.150;21.620;2022-08-19T02:16:31;18.90;99.90
37276;DHT22;23166;51.150;21.620;2022-08-19T02:18:58;18.90;99.90
37276;DHT22;23166;51.150;21.620;2022-08-19T02:21:27;18.90;99.90
37276;DHT22;23166;51.150;21.620;2022-08-19T02:23:54;18.90;99.90
37276;DHT22;23166;51.150;21.620;2022-08-19T02:26:21;18.90;99.90
37276;DHT22;23166;51.150;21.620;2022-08-19T02:28:47;18.90;99.90
37276;DHT22;23166;51.150;21.620;2022-08-19T02:31:16;18.90;99.90
37276;DHT22;23166;51.150;21.620;2022-08-19T02:33:43;18.90;99.90
37276;DHT22;23166;51.150;21.620;2022-08-19T02:36:10;18.90;99.90
37276;DHT22;23166;51.150;21.620;2022-08-19T02:38:37;18.90;99.90
37276;DHT22;23166;51.150;21.620;2022-08-19T02:41:07;18.90;99.90
37276;DHT22;23166;51.150;21.620;2022-08-19T02:43:35;18.90;99.90
37276;DHT22;23166;51.150;21.620;2022-08-19T02:46:11;18.90;99.90
37276;DHT22;23166;51.150;21.620;2022-08-19T02:48:30;18.80;99.90
37276;DHT22;23166;51.150;21.620;2022-08-19T02:50:58;18.80;99.90
37276;DHT22;23166;51.150;21.620;2022-08-19T02:53:26;18.80;99.90
37276;DHT22;23166;51.150;21.620;2022-08-19T02:55:52;18.80;99.90
37276;DHT22;23166;51.150;21.620;2022-08-19T02:58:19;18.80;99.90
37276;DHT22;23166;51.150;21.620;2022-08-19T03:00:51;18.80;99.90
37276;DHT22;23166;51.150;21.620;2022-08-19T03:03:15;18.80;99.90
37276;DHT22;23166;51.150;21.620;2022-08-19T03:05:41;18.70;99.90
37276;DHT22;23166;51.150;21.620;2022-08-19T03:08:08;18.80;99.90
37276;DHT22;23166;51.150;21.620;2022-08-19T03:10:39;18.70;99.90
37276;DHT22;23166;51.150;21.620;2022-08-19T03:13:04;18.70;99.90
37276;DHT22;23166;51.150;21.620;2022-08-19T03:15:30;18.70;99.90
37276;DHT22;23166;51.150;21.620;2022-08-19T03:17:56;18.60;99.90
37276;DHT22;23166;51.150;21.620;2022-08-19T03:20:22;18.60;99.90
37276;DHT22;23166;51.150;21.620;2022-08-19T03:22:48;18.60;99.90
37276;DHT22;23166;51.150;21.620;2022-08-19T03:25:15;18.50;99.90
37276;DHT22;23166;51.150;21.620;2022-08-19T03:27:41;18.50;99.90
37276;DHT22;23166;51.150;21.620;2022-08-19T03:30:07;18.50;99.90
37276;DHT22;23166;51.150;21.620;2022-08-19T03:32:34;18.50;99.90
37276;DHT22;23166;51.150;21.620;2022-08-19T03:35:00;18.50;99.90
37276;DHT22;23166;51.150;21.620;2022-08-19T03:37:26;18.50;99.90
37276;DHT22;23166;51.150;21.620;2022-08-19T03:39:53;18.50;99.90
37276;DHT22;23166;51.150;21.620;2022-08-19T03:42:19;18.40;99.90
37276;DHT22;23166;51.150;21.620;2022-08-19T03:44:45;18.40;99.90
37276;DHT22;23166;51.150;21.620;2022-08-19T03:47:11;18.40;99.90
37276;DHT22;23166;51.150;21.620;2022-08-19T03:49:39;18.40;99.90
37276;DHT22;23166;51.150;21.620;2022-08-19T03:52:06;18.40;99.90
37276;DHT22;23166;51.150;21.620;2022-08-19T03:54:35;18.50;99.90
37276;DHT22;23166;51.150;21.620;2022-08-19T03:57:01;18.60;99.90
37276;DHT22;23166;51.150;21.620;2022-08-19T03:59:29;18.70;99.90
37276;DHT22;23166;51.150;21.620;2022-08-19T04:01:55;18.80;99.90
37276;DHT22;23166;51.150;21.620;2022-08-19T04:04:22;18.80;99.90
37276;DHT22;23166;51.150;21.620;2022-08-19T04:06:48;18.90;99.90
37276;DHT22;23166;51.150;21.620;2022-08-19T04:09:16;19.00;99.90
37276;DHT22;23166;51.150;21.620;2022-08-19T04:11:44;19.00;99.90
37276;DHT22;23166;51.150;21.620;2022-08-19T04:14:11;19.10;99.90
37276;DHT22;23166;51.150;21.620;2022-08-19T04:16:38;19.20;99.90
37276;DHT22;23166;51.150;21.620;2022-08-19T04:19:04;19.30;99.90
37276;DHT22;23166;51.150;21.620;2022-08-19T04:21:30;19.50;99.90
37276;DHT22;23166;51.150;21.620;2022-08-19T04:23:57;19.60;99.90
37276;DHT22;23166;51.150;21.620;2022-08-19T04:26:24;19.70;98.90
37276;DHT22;23166;51.150;21.620;2022-08-19T04:28:51;19.80;98.40
37276;DHT22;23166;51.150;21.620;2022-08-19T04:31:19;19.90;98.00
37276;DHT22;23166;51.150;21.620;2022-08-19T04:33:46;20.00;97.60
37276;DHT22;23166;51.150;21.620;2022-08-19T04:36:21;20.10;97.20
37276;DHT22;23166;51.150;21.620;2022-08-19T04:38:45;20.20;96.90
37276;DHT22;23166;51.150;21.620;2022-08-19T04:41:11;20.40;94.90
37276;DHT22;23166;51.150;21.620;2022-08-19T04:43:56;20.50;93.60
37276;DHT22;23166;51.150;21.620;2022-08-19T04:46:22;20.60;92.10
37276;DHT22;23166;51.150;21.620;2022-08-19T04:48:48;20.80;91.60
37276;DHT22;23166;51.150;21.620;2022-08-19T04:51:15;20.90;89.10
37276;DHT22;23166;51.150;21.620;2022-08-19T04:53:41;21.10;89.80
37276;DHT22;23166;51.150;21.620;2022-08-19T04:56:09;21.20;87.80
37276;DHT22;23166;51.150;21.620;2022-08-19T04:58:36;21.30;82.80
37276;DHT22;23166;51.150;21.620;2022-08-19T05:01:03;21.40;76.40
37276;DHT22;23166;51.150;21.620;2022-08-19T05:03:29;21.50;78.50
37276;DHT22;23166;51.150;21.620;2022-08-19T05:05:57;21.50;74.10
37276;DHT22;23166;51.150;21.620;2022-08-19T05:08:24;21.60;72.00
37276;DHT22;23166;51.150;21.620;2022-08-19T05:10:50;21.70;76.00
37276;DHT22;23166;51.150;21.620;2022-08-19T05:13:17;21.60;77.50
37276;DHT22;23166;51.150;21.620;2022-08-19T05:15:45;21.80;77.20
37276;DHT22;23166;51.150;21.620;2022-08-19T05:18:12;21.80;72.00
37276;DHT22;23166;51.150;21.620;2022-08-19T05:20:57;21.90;72.90
37276;DHT22;23166;51.150;21.620;2022-08-19T05:23:42;22.10;63.20
37276;DHT22;23166;51.150;21.620;2022-08-19T05:26:10;22.20;62.40
37276;DHT22;23166;51.150;21.620;2022-08-19T05:28:36;22.30;51.90
37276;DHT22;23166;51.150;21.620;2022-08-19T05:31:03;22.40;57.80
37276;DHT22;23166;51.150;21.620;2022-08-19T05:33:29;22.50;60.80
37276;DHT22;23166;51.150;21.620;2022-08-19T05:35:55;22.60;56.90
37276;DHT22;23166;51.150;21.620;2022-08-19T05:38:21;22.70;53.80
37276;DHT22;23166;51.150;21.620;2022-08-19T05:40:47;22.90;43.40
37276;DHT22;23166;51.150;21.620;2022-08-19T05:43:15;23.00;34.70
37276;DHT22;23166;51.150;21.620;2022-08-19T05:45:42;23.10;36.90
37276;DHT22;23166;51.150;21.620;2022-08-19T05:48:09;23.20;31.50
37276;DHT22;23166;51.150;21.620;2022-08-19T05:50:37;23.40;24.30
37276;DHT22;23166;51.150;21.620;2022-08-19T05:53:04;23.50;23.90
37276;DHT22;23166;51.150;21.620;2022-08-19T05:55:30;23.60;12.20
37276;DHT22;23166;51.150;21.620;2022-08-19T05:57:56;23.70;3.90
37276;DHT22;23166;51.150;21.620;2022-08-19T06:00:23;23.90;1.00
37276;DHT22;23166;51.150;21.620;2022-08-19T06:02:49;24.00;1.00
37276;DHT22;23166;51.150;21.620;2022-08-19T06:05:16;24.00;1.00
37276;DHT22;23166;51.150;21.620;2022-08-19T06:07:42;24.20;1.00
37276;DHT22;23166;51.150;21.620;2022-08-19T06:10:10;24.30;1.00
37276;DHT22;23166;51.150;21.620;2022-08-19T06:12:37;24.40;1.00
37276;DHT22;23166;51.150;21.620;2022-08-19T06:15:05;24.40;1.00
37276;DHT22;23166;51.150;21.620;2022-08-19T06:17:31;24.60;1.00
37276;DHT22;23166;51.150;21.620;2022-08-19T06:19:57;24.70;1.00
37276;DHT22;23166;51.150;21.620;2022-08-19T06:22:23;24.80;1.00
37276;DHT22;23166;51.150;21.620;2022-08-19T06:24:50;25.00;1.00
37276;DHT22;23166;51.150;21.620;2022-08-19T06:27:18;25.10;1.00
37276;DHT22;23166;51.150;21.620;2022-08-19T06:29:44;25.20;1.00
37276;DHT22;23166;51.150;21.620;2022-08-19T06:32:13;25.30;1.00
37276;DHT22;23166;51.150;21.620;2022-08-19T06:34:40;25.40;99.90
37276;DHT22;23166;51.150;21.620;2022-08-19T06:37:06;25.50;99.90
37276;DHT22;23166;51.150;21.620;2022-08-19T06:39:34;25.60;99.90
37276;DHT22;23166;51.150;21.620;2022-08-19T06:42:01;25.80;99.90
37276;DHT22;23166;51.150;21.620;2022-08-19T06:44:29;25.90;99.90
37276;DHT22;23166;51.150;21.620;2022-08-19T06:46:58;26.00;99.90
37276;DHT22;23166;51.150;21.620;2022-08-19T06:49:24;26.10;99.90
37276;DHT22;23166;51.150;21.620;2022-08-19T06:51:52;26.20;99.90
37276;DHT22;23166;51.150;21.620;2022-08-19T06:54:18;26.30;99.90
37276;DHT22;23166;51.150;21.620;2022-08-19T06:56:45;26.40;69.70
37276;DHT22;23166;51.150;21.620;2022-08-19T06:59:16;26.50;54.50
37276;DHT22;23166;51.150;21.620;2022-08-19T07:01:40;26.60;99.90
37276;DHT22;23166;51.150;21.620;2022-08-19T07:04:07;26.60;99.90
37276;DHT22;23166;51.150;21.620;2022-08-19T07:06:34;26.70;99.90
37276;DHT22;23166;51.150;21.620;2022-08-19T07:09:00;26.80;1.00
37276;DHT22;23166;51.150;21.620;2022-08-19T07:11:27;26.90;1.00
37276;DHT22;23166;51.150;21.620;2022-08-19T07:13:53;27.00;99.90
37276;DHT22;23166;51.150;21.620;2022-08-19T07:16:20;27.10;99.90
37276;DHT22;23166;51.150;21.620;2022-08-19T07:18:48;27.20;99.90
37276;DHT22;23166;51.150;21.620;2022-08-19T07:21:16;27.30;1.00
37276;DHT22;23166;51.150;21.620;2022-08-19T07:23:42;27.30;1.00
37276;DHT22;23166;51.150;21.620;2022-08-19T07:26:10;27.40;1.00
37276;DHT22;23166;51.150;21.620;2022-08-19T07:28:36;27.40;99.90
37276;DHT22;23166;51.150;21.620;2022-08-19T07:31:06;27.40;1.00
37276;DHT22;23166;51.150;21.620;2022-08-19T07:33:32;27.50;1.00
37276;DHT22;23166;51.150;21.620;2022-08-19T07:36:01;27.60;1.00
37276;DHT22;23166;51.150;21.620;2022-08-19T07:38:27;27.60;12.60
37276;DHT22;23166;51.150;21.620;2022-08-19T07:40:53;27.70;1.00
37276;DHT22;23166;51.150;21.620;2022-08-19T07:43:19;27.70;99.90
37276;DHT22;23166;51.150;21.620;2022-08-19T07:45:47;27.80;68.10
37276;DHT22;23166;51.150;21.620;2022-08-19T07:48:13;27.80;1.00
37276;DHT22;23166;51.150;21.620;2022-08-19T07:50:40;27.90;99.90
37276;DHT22;23166;51.150;21.620;2022-08-19T07:53:06;27.90;99.90
37276;DHT22;23166;51.150;21.620;2022-08-19T07:55:32;28.00;99.90
37276;DHT22;23166;51.150;21.620;2022-08-19T07:57:59;28.00;1.00
37276;DHT22;23166;51.150;21.620;2022-08-19T08:00:26;28.10;99.90
37276;DHT22;23166;51.150;21.620;2022-08-19T08:02:52;28.20;1.00
37276;DHT22;23166;51.150;21.620;2022-08-19T08:05:18;28.30;99.90
37276;DHT22;23166;51.150;21.620;2022-08-19T08:08:03;28.40;1.00
37276;DHT22;23166;51.150;21.620;2022-08-19T08:10:48;28.50;1.00
37276;DHT22;23166;51.150;21.620;2022-08-19T08:13:14;28.60;99.90
37276;DHT22;23166;51.150;21.620;2022-08-19T08:15:40;28.70;99.90
37276;DHT22;23166;51.150;21.620;2022-08-19T08:18:06;28.80;1.00
37276;DHT22;23166;51.150;21.620;2022-08-19T08:20:33;28.80;1.00
37276;DHT22;23166;51.150;21.620;2022-08-19T08:22:59;28.90;99.90
37276;DHT22;23166;51.150;21.620;2022-08-19T08:25:44;29.00;99.90
37276;DHT22;23166;51.150;21.620;2022-08-19T08:28:10;29.10;27.30
37276;DHT22;23166;51.150;21.620;2022-08-19T08:30:36;29.20;1.00
37276;DHT22;23166;51.150;21.620;2022-08-19T08:33:02;29.20;9.40
37276;DHT22;23166;51.150;21.620;2022-08-19T08:35:29;29.30;1.00
37276;DHT22;23166;51.150;21.620;2022-08-19T08:37:55;29.40;1.00
37276;DHT22;23166;51.150;21.620;2022-08-19T08:40:39;29.40;99.90
37276;DHT22;23166;51.150;21.620;2022-08-19T08:45:49;29.70;99.90
37276;DHT22;23166;51.150;21.620;2022-08-19T08:48:19;29.80;99.90
37276;DHT22;23166;51.150;21.620;2022-08-19T08:50:46;29.90;97.90
37276;DHT22;23166;51.150;21.620;2022-08-19T08:53:17;30.00;47.30
37276;DHT22;23166;51.150;21.620;2022-08-19T08:55:43;30.10;17.70
37276;DHT22;23166;51.150;21.620;2022-08-19T08:58:15;30.20;1.00
37276;DHT22;23166;51.150;21.620;2022-08-19T09:00:46;30.30;1.00
37276;DHT22;23166;51.150;21.620;2022-08-19T09:03:22;30.30;1.00
37276;DHT22;23166;51.150;21.620;2022-08-19T09:11:08;30.50;1.00
37276;DHT22;23166;51.150;21.620;2022-08-19T09:16:17;30.70;1.00
37276;DHT22;23166;51.150;21.620;2022-08-19T09:18:42;30.70;1.00
37276;DHT22;23166;51.150;21.620;2022-08-19T09:21:08;30.80;99.90
37276;DHT22;23166;51.150;21.620;2022-08-19T09:23:35;30.90;99.90
37276;DHT22;23166;51.150;21.620;2022-08-19T09:26:06;31.00;99.90
37276;DHT22;23166;51.150;21.620;2022-08-19T09:28:30;31.10;99.90
37276;DHT22;23166;51.150;21.620;2022-08-19T09:30:57;31.20;99.90
37276;DHT22;23166;51.150;21.620;2022-08-19T09:33:23;31.20;99.90
37276;DHT22;23166;51.150;21.620;2022-08-19T09:35:49;31.30;99.90
37276;DHT22;23166;51.150;21.620;2022-08-19T09:38:15;31.30;99.90
37276;DHT22;23166;51.150;21.620;2022-08-19T09:40:41;31.40;99.90
37276;DHT22;23166;51.150;21.620;2022-08-19T09:43:07;31.40;99.90
37276;DHT22;23166;51.150;21.620;2022-08-19T09:45:35;31.50;99.90
37276;DHT22;23166;51.150;21.620;2022-08-19T09:48:01;31.50;99.90
37276;DHT22;23166;51.150;21.620;2022-08-19T09:50:28;31.60;99.90
37276;DHT22;23166;51.150;21.620;2022-08-19T09:52:56;31.70;99.90
37276;DHT22;23166;51.150;21.620;2022-08-19T09:55:22;31.70;99.90
37276;DHT22;23166;51.150;21.620;2022-08-19T09:57:48;31.70;99.90
37276;DHT22;23166;51.150;21.620;2022-08-19T10:00:14;31.80;99.90
37276;DHT22;23166;51.150;21.620;2022-08-19T10:02:41;31.90;99.90
37276;DHT22;23166;51.150;21.620;2022-08-19T10:05:07;31.90;99.90
37276;DHT22;23166;51.150;21.620;2022-08-19T10:07:52;31.90;99.90
37276;DHT22;23166;51.150;21.620;2022-08-19T10:10:18;31.90;99.90
37276;DHT22;23166;51.150;21.620;2022-08-19T10:12:44;32.00;99.90
37276;DHT22;23166;51.150;21.620;2022-08-19T10:15:12;32.00;99.90
37276;DHT22;23166;51.150;21.620;2022-08-19T10:17:38;32.10;99.90
37276;DHT22;23166;51.150;21.620;2022-08-19T10:20:04;32.10;99.90
37276;DHT22;23166;51.150;21.620;2022-08-19T10:22:31;32.20;99.90
37276;DHT22;23166;51.150;21.620;2022-08-19T10:24:57;32.20;99.90
37276;DHT22;23166;51.150;21.620;2022-08-19T10:27:23;32.20;99.90
37276;DHT22;23166;51.150;21.620;2022-08-19T10:29:49;32.20;99.90
37276;DHT22;23166;51.150;21.620;2022-08-19T10:32:16;32.20;99.90
37276;DHT22;23166;51.150;21.620;2022-08-19T10:34:42;32.20;99.90
37276;DHT22;23166;51.150;21.620;2022-08-19T10:37:08;32.30;99.90
37276;DHT22;23166;51.150;21.620;2022-08-19T10:39:35;32.30;99.90
37276;DHT22;23166;51.150;21.620;2022-08-19T10:42:05;32.30;99.90
37276;DHT22;23166;51.150;21.620;2022-08-19T10:44:32;32.30;99.90
37276;DHT22;23166;51.150;21.620;2022-08-19T10:46:58;32.30;99.90
37276;DHT22;23166;51.150;21.620;2022-08-19T10:49:24;32.30;99.90
37276;DHT22;23166;51.150;21.620;2022-08-19T10:51:50;32.40;99.90
37276;DHT22;23166;51.150;21.620;2022-08-19T10:54:35;32.40;99.90
37276;DHT22;23166;51.150;21.620;2022-08-19T10:57:19;32.40;99.90
37276;DHT22;23166;51.150;21.620;2022-08-19T10:59:45;32.40;99.90
37276;DHT22;23166;51.150;21.620;2022-08-19T11:02:13;32.40;99.90
37276;DHT22;23166;51.150;21.620;2022-08-19T11:04:39;32.50;99.90
37276;DHT22;23166;51.150;21.620;2022-08-19T11:07:06;32.50;99.90
37276;DHT22;23166;51.150;21.620;2022-08-19T11:09:36;32.50;99.90
37276;DHT22;23166;51.150;21.620;2022-08-19T11:12:01;32.50;99.90
37276;DHT22;23166;51.150;21.620;2022-08-19T11:14:27;32.60;99.90
37276;DHT22;23166;51.150;21.620;2022-08-19T11:16:53;32.70;99.90
37276;DHT22;23166;51.150;21.620;2022-08-19T11:19:21;32.80;99.90
37276;DHT22;23166;51.150;21.620;2022-08-19T11:21:50;32.90;99.90
37276;DHT22;23166;51.150;21.620;2022-08-19T11:24:18;32.90;99.90
37276;DHT22;23166;51.150;21.620;2022-08-19T11:26:46;32.90;99.90
37276;DHT22;23166;51.150;21.620;2022-08-19T11:32:02;33.10;98.10
37276;DHT22;23166;51.150;21.620;2022-08-19T11:34:29;33.10;97.40
37276;DHT22;23166;51.150;21.620;2022-08-19T11:36:55;33.20;94.80
37276;DHT22;23166;51.150;21.620;2022-08-19T11:39:24;33.20;91.80
37276;DHT22;23166;51.150;21.620;2022-08-19T11:41:51;33.20;87.30
37276;DHT22;23166;51.150;21.620;2022-08-19T11:44:17;33.20;85.20
37276;DHT22;23166;51.150;21.620;2022-08-19T11:46:43;33.20;82.70
37276;DHT22;23166;51.150;21.620;2022-08-19T11:49:14;33.30;76.50
37276;DHT22;23166;51.150;21.620;2022-08-19T11:51:40;33.40;68.70
37276;DHT22;23166;51.150;21.620;2022-08-19T11:54:08;33.40;61.20
37276;DHT22;23166;51.150;21.620;2022-08-19T11:56:36;33.40;60.30
37276;DHT22;23166;51.150;21.620;2022-08-19T11:59:02;33.40;53.80
37276;DHT22;23166;51.150;21.620;2022-08-19T12:01:29;33.50;53.20
37276;DHT22;23166;51.150;21.620;2022-08-19T12:03:55;33.50;52.70
37276;DHT22;23166;51.150;21.620;2022-08-19T12:06:27;33.50;48.60
37276;DHT22;23166;51.150;21.620;2022-08-19T12:08:51;33.60;43.30
37276;DHT22;23166;51.150;21.620;2022-08-19T12:11:17;33.60;36.30
37276;DHT22;23166;51.150;21.620;2022-08-19T12:13:44;33.70;35.90
37276;DHT22;23166;51.150;21.620;2022-08-19T12:16:13;33.60;28.90
37276;DHT22;23166;51.150;21.620;2022-08-19T12:18:40;33.60;30.90
37276;DHT22;23166;51.150;21.620;2022-08-19T12:21:09;33.60;28.10
37276;DHT22;23166;51.150;21.620;2022-08-19T12:23:36;33.50;23.50
37276;DHT22;23166;51.150;21.620;2022-08-19T12:26:03;33.50;21.60
37276;DHT22;23166;51.150;21.620;2022-08-19T12:28:30;33.60;23.90
37276;DHT22;23166;51.150;21.620;2022-08-19T12:30:56;33.50;25.70
37276;DHT22;23166;51.150;21.620;2022-08-19T12:33:23;33.50;27.20
37276;DHT22;23166;51.150;21.620;2022-08-19T12:35:51;33.50;23.90
37276;DHT22;23166;51.150;21.620;2022-08-19T12:38:18;33.50;23.50
37276;DHT22;23166;51.150;21.620;2022-08-19T12:40:47;33.40;20.20
37276;DHT22;23166;51.150;21.620;2022-08-19T12:43:14;33.40;20.10
37276;DHT22;23166;51.150;21.620;2022-08-19T12:45:41;33.40;31.20
37276;DHT22;23166;51.150;21.620;2022-08-19T12:48:08;33.40;21.10
37276;DHT22;23166;51.150;21.620;2022-08-19T12:50:34;33.40;20.40
37276;DHT22;23166;51.150;21.620;2022-08-19T12:53:00;33.50;19.30
37276;DHT22;23166;51.150;21.620;2022-08-19T12:55:27;33.50;14.10
37276;DHT22;23166;51.150;21.620;2022-08-19T12:57:54;33.60;15.80
37276;DHT22;23166;51.150;21.620;2022-08-19T13:00:21;33.50;12.60
37276;DHT22;23166;51.150;21.620;2022-08-19T13:02:48;33.60;13.30
37276;DHT22;23166;51.150;21.620;2022-08-19T13:05:17;33.70;10.60
37276;DHT22;23166;51.150;21.620;2022-08-19T13:07:47;33.60;12.80
37276;DHT22;23166;51.150;21.620;2022-08-19T13:10:15;33.70;11.50
37276;DHT22;23166;51.150;21.620;2022-08-19T13:12:41;33.70;6.40
37276;DHT22;23166;51.150;21.620;2022-08-19T13:15:08;33.70;5.90
37276;DHT22;23166;51.150;21.620;2022-08-19T13:17:35;33.70;5.30
37276;DHT22;23166;51.150;21.620;2022-08-19T13:20:02;33.80;3.40
37276;DHT22;23166;51.150;21.620;2022-08-19T13:22:28;33.80;1.00
37276;DHT22;23166;51.150;21.620;2022-08-19T13:24:54;33.80;1.00
37276;DHT22;23166;51.150;21.620;2022-08-19T13:27:20;33.70;1.00
37276;DHT22;23166;51.150;21.620;2022-08-19T13:29:46;33.70;1.00
37276;DHT22;23166;51.150;21.620;2022-08-19T13:32:31;33.70;1.00
37276;DHT22;23166;51.150;21.620;2022-08-19T13:35:15;33.70;1.00
37276;DHT22;23166;51.150;21.620;2022-08-19T13:37:42;33.70;1.00
37276;DHT22;23166;51.150;21.620;2022-08-19T13:40:09;33.70;1.00
37276;DHT22;23166;51.150;21.620;2022-08-19T13:42:38;33.70;1.00
37276;DHT22;23166;51.150;21.620;2022-08-19T13:45:05;33.70;1.00
37276;DHT22;23166;51.150;21.620;2022-08-19T13:47:32;33.80;1.00
37276;DHT22;23166;51.150;21.620;2022-08-19T13:50:04;33.80;1.00
37276;DHT22;23166;51.150;21.620;2022-08-19T13:52:30;33.80;1.00
37276;DHT22;23166;51.150;21.620;2022-08-19T13:54:56;33.80;1.00
37276;DHT22;23166;51.150;21.620;2022-08-19T13:57:22;33.80;1.00
37276;DHT22;23166;51.150;21.620;2022-08-19T13:59:48;33.80;1.00
37276;DHT22;23166;51.150;21.620;2022-08-19T14:02:14;33.80;1.00
37276;DHT22;23166;51.150;21.620;2022-08-19T14:04:41;33.80;1.00
37276;DHT22;23166;51.150;21.620;2022-08-19T14:07:07;33.80;1.00
37276;DHT22;23166;51.150;21.620;2022-08-19T14:09:33;33.80;1.00
37276;DHT22;23166;51.150;21.620;2022-08-19T14:12:01;33.80;1.00
37276;DHT22;23166;51.150;21.620;2022-08-19T14:14:27;33.80;1.00
37276;DHT22;23166;51.150;21.620;2022-08-19T14:19:41;33.90;1.00
37276;DHT22;23166;51.150;21.620;2022-08-19T14:22:07;33.90;1.00
37276;DHT22;23166;51.150;21.620;2022-08-19T14:24:34;33.90;1.00
37276;DHT22;23166;51.150;21.620;2022-08-19T14:27:00;33.90;1.00
37276;DHT22;23166;51.150;21.620;2022-08-19T14:29:26;33.90;1.00
37276;DHT22;23166;51.150;21.620;2022-08-19T14:31:54;33.80;1.00
37276;DHT22;23166;51.150;21.620;2022-08-19T14:34:21;33.80;1.00
37276;DHT22;23166;51.150;21.620;2022-08-19T14:36:48;33.80;1.00
37276;DHT22;23166;51.150;21.620;2022-08-19T14:39:14;33.70;1.00
37276;DHT22;23166;51.150;21.620;2022-08-19T14:41:40;33.70;1.00
37276;DHT22;23166;51.150;21.620;2022-08-19T14:44:07;33.70;1.00
37276;DHT22;23166;51.150;21.620;2022-08-19T14:46:35;33.80;1.00
37276;DHT22;23166;51.150;21.620;2022-08-19T14:49:01;33.80;1.00
37276;DHT22;23166;51.150;21.620;2022-08-19T14:51:28;33.80;1.00
37276;DHT22;23166;51.150;21.620;2022-08-19T14:53:54;33.80;1.00
37276;DHT22;23166;51.150;21.620;2022-08-19T14:56:22;33.80;1.00
37276;DHT22;23166;51.150;21.620;2022-08-19T14:58:49;33.70;1.00
37276;DHT22;23166;51.150;21.620;2022-08-19T15:01:17;33.70;1.00
37276;DHT22;23166;51.150;21.620;2022-08-19T15:03:43;33.70;1.00
37276;DHT22;23166;51.150;21.620;2022-08-19T15:06:10;33.70;1.00
37276;DHT22;23166;51.150;21.620;2022-08-19T15:08:36;33.70;1.00
37276;DHT22;23166;51.150;21.620;2022-08-19T15:11:13;33.60;1.00
37276;DHT22;23166;51.150;21.620;2022-08-19T15:13:35;33.50;1.00
37276;DHT22;23166;51.150;21.620;2022-08-19T15:16:01;33.60;1.00
37276;DHT22;23166;51.150;21.620;2022-08-19T15:18:28;33.60;1.00
37276;DHT22;23166;51.150;21.620;2022-08-19T15:20:54;33.50;1.00
37276;DHT22;23166;51.150;21.620;2022-08-19T15:23:20;33.50;1.00
37276;DHT22;23166;51.150;21.620;2022-08-19T15:25:47;33.40;1.00
37276;DHT22;23166;51.150;21.620;2022-08-19T15:28:13;33.30;1.00
37276;DHT22;23166;51.150;21.620;2022-08-19T15:30:41;33.30;1.00
37276;DHT22;23166;51.150;21.620;2022-08-19T15:33:10;33.20;1.00
37276;DHT22;23166;51.150;21.620;2022-08-19T15:35:38;33.20;1.00
37276;DHT22;23166;51.150;21.620;2022-08-19T15:38:05;33.10;1.00